Hubbell, Michigan
Current Conditions -  °F | °C
As of 2:53 AM on Saturday 25 Oct 2014 (Local Time) from KCMX Reporting Station
Clear Clear  
Wind Chill: 58°   Ceiling: Unl
Heat Index: 58°   Visibility: 10mi
Dew Point: 44°   Wind: 23mph
Humidity: 60%   Direction: 280°W
Pressure: 29.65"   Gusts: 31mph
Location:  47.17°N, 88.43°W
Report Text: KCMX 250653Z AUTO 28020G27KT 10SM CLR 14/07 A2965 RMK AO2 PK WND 25031/0606 SLP041 T01440067
Loading
Personal Weather Stations






























Interactive Weather Map
Tropical Storm Tracking
New forecast layout! Learn more

10-Day Weather Forecast

Advertisements
Track Severe Weather on mobile